Terminal Aerodrome Forecast
Issued by NWS

Home | Current Version | Previous Version | Graphics & Text | Print | Product List | Glossary On
Versions: 1 2 3 4 5 6 7 8 9 10 11 12 13 14 15 16 17 18 19
000
FTUS42 KMHX 232100 AAC
TAFOAJ
TAF AMD
KOAJ 232120Z 2321/2418 05010KT 4SM -RA BKN015 OVC020
     FM232300 08010KT 3SM RA BR SCT005 BKN008 WS015/13035KT
     FM240500 17015G24KT 1 1/2SM RA BR OVC004 WS015/20040KT
      AMD LTD TO CLD VIS AND WIND=

USA.gov is the U.S. government's official web portal to all federal, state and local government web resources and services.